Time;durP1;ratioP1;P1;durP2;ratioP2;P2;SDS_P1;SDS_P2;PMS_P1;PMS_P2;Temp;Humidity;BMP_temperature;BMP_pressure;BME280_temperature;BME280_humidity;BME280_pressure;Samples;Min_cycle;Max_cycle;Signal;HPM_P1;HPM_P2
2023/11/15 00:00:07;;;;;;;14.50;9.18;;;9.10;99.90;;;;;;5076124;28;20063;-74
2023/11/15 00:02:37;;;;;;;11.55;8.38;;;9.00;99.90;;;;;;5074305;28;20036;-76
2023/11/15 00:05:04;;;;;;;13.20;8.45;;;9.10;99.90;;;;;;5076743;28;20028;-75
2023/11/15 00:07:30;;;;;;;13.07;8.55;;;9.00;99.90;;;;;;5074853;28;20035;-75
2023/11/15 00:09:56;;;;;;;13.27;9.05;;;9.10;99.90;;;;;;5075252;28;20036;-76
2023/11/15 00:12:22;;;;;;;10.95;7.35;;;9.10;99.90;;;;;;5075436;28;20433;-76
2023/11/15 00:14:48;;;;;;;16.02;9.07;;;9.10;99.90;;;;;;5076409;28;20028;-76
2023/11/15 00:17:14;;;;;;;11.23;8.00;;;9.00;99.90;;;;;;5078546;28;20032;-75
2023/11/15 00:19:45;;;;;;;12.68;9.27;;;9.00;99.90;;;;;;5079157;28;20042;-75
2023/11/15 00:22:14;;;;;;;13.63;8.55;;;8.90;99.90;;;;;;5079536;28;20687;-75
2023/11/15 00:24:41;;;;;;;11.70;8.48;;;8.80;99.90;;;;;;5080451;28;20035;-75
2023/11/15 00:27:08;;;;;;;12.98;8.27;;;8.80;99.90;;;;;;5080401;28;20039;-75
2023/11/15 00:29:34;;;;;;;11.68;7.95;;;8.80;99.90;;;;;;5080329;28;20039;-75
2023/11/15 00:32:00;;;;;;;14.18;8.40;;;8.90;99.90;;;;;;5080060;28;20040;-75
2023/11/15 00:34:26;;;;;;;12.07;8.43;;;9.00;99.90;;;;;;5080087;28;20582;-75
2023/11/15 00:36:53;;;;;;;12.07;7.80;;;8.90;99.90;;;;;;5079548;28;20038;-75
2023/11/15 00:39:19;;;;;;;13.50;8.23;;;9.00;99.90;;;;;;5079192;28;20094;-75
2023/11/15 00:41:45;;;;;;;11.50;8.05;;;9.00;99.90;;;;;;5078861;28;20249;-75
2023/11/15 00:44:11;;;;;;;15.43;8.80;;;9.10;99.90;;;;;;5080034;28;20027;-75
2023/11/15 00:46:37;;;;;;;10.07;7.90;;;9.20;99.90;;;;;;5079356;28;20024;-75
2023/11/15 00:49:03;;;;;;;11.13;7.40;;;9.30;99.90;;;;;;5079382;28;20065;-75
2023/11/15 00:51:29;;;;;;;12.30;7.55;;;9.40;99.90;;;;;;5078787;28;20028;-75
2023/11/15 00:53:55;;;;;;;10.55;7.15;;;9.40;99.90;;;;;;5079705;28;20043;-75
2023/11/15 00:56:21;;;;;;;10.98;7.10;;;9.40;99.90;;;;;;5078307;28;20039;-75
2023/11/15 00:58:46;;;;;;;14.57;7.47;;;9.30;99.90;;;;;;5079663;28;20031;-75
2023/11/15 01:01:15;;;;;;;13.02;7.60;;;9.30;99.90;;;;;;5079133;28;20517;-73
2023/11/15 01:03:46;;;;;;;13.27;7.32;;;9.30;99.90;;;;;;5079685;28;20423;-73
2023/11/15 01:06:14;;;;;;;15.80;7.97;;;9.30;99.90;;;;;;5078629;28;20367;-73
2023/11/15 01:08:40;;;;;;;10.38;6.95;;;9.20;99.90;;;;;;5078141;28;20745;-73
2023/11/15 01:11:06;;;;;;;10.07;7.65;;;9.30;99.90;;;;;;5079594;28;20082;-73
2023/11/15 01:13:35;;;;;;;10.25;7.38;;;9.20;99.90;;;;;;5079716;28;20044;-73
2023/11/15 01:16:00;;;;;;;11.57;8.02;;;9.00;99.90;;;;;;5078245;28;20090;-73
2023/11/15 01:18:26;;;;;;;11.68;7.20;;;8.90;99.90;;;;;;5078612;28;20139;-74
2023/11/15 01:20:52;;;;;;;12.05;8.75;;;8.80;99.90;;;;;;5079760;28;20547;-73
2023/11/15 01:23:18;;;;;;;11.07;8.15;;;8.70;99.90;;;;;;5079737;28;20467;-73
2023/11/15 01:25:44;;;;;;;9.77;7.72;;;8.60;99.90;;;;;;5079366;28;20035;-74
2023/11/15 01:28:09;;;;;;;9.95;7.28;;;8.70;99.90;;;;;;5078481;28;20104;-73
2023/11/15 01:30:35;;;;;;;10.25;7.25;;;8.80;99.90;;;;;;5078725;28;20140;-73
2023/11/15 01:33:01;;;;;;;10.65;7.35;;;8.80;99.90;;;;;;5078715;28;20131;-73
2023/11/15 01:35:26;;;;;;;12.43;8.60;;;8.70;99.90;;;;;;5078590;28;20068;-73
2023/11/15 01:37:53;;;;;;;9.25;6.97;;;8.60;99.90;;;;;;5079674;28;20028;-73
2023/11/15 01:40:22;;;;;;;18.92;7.78;;;8.30;99.90;;;;;;5078783;28;20055;-72
2023/11/15 01:42:48;;;;;;;12.68;7.70;;;8.10;99.90;;;;;;5078585;28;20028;-73
2023/11/15 01:45:15;;;;;;;11.73;7.82;;;8.00;99.90;;;;;;5079461;28;20394;-73
2023/11/15 01:47:42;;;;;;;12.20;8.95;;;8.10;99.90;;;;;;5078850;28;20028;-73
2023/11/15 01:50:10;;;;;;;13.63;7.28;;;8.10;99.90;;;;;;5078841;28;20067;-73
2023/11/15 01:52:45;;;;;;;8.80;6.70;;;8.10;99.90;;;;;;5078960;28;20100;-73
2023/11/15 01:55:18;;;;;;;10.30;6.32;;;8.20;99.90;;;;;;5078622;28;20036;-73
2023/11/15 01:57:45;;;;;;;10.05;6.88;;;8.00;99.90;;;;;;5079014;28;20394;-73
2023/11/15 02:00:13;;;;;;;9.85;7.53;;;8.10;99.90;;;;;;5079521;28;20032;-73
2023/11/15 02:02:40;;;;;;;12.18;8.05;;;8.10;99.90;;;;;;5078712;28;20052;-73
2023/11/15 02:05:07;;;;;;;11.68;7.18;;;8.10;99.90;;;;;;5077607;28;20032;-73
2023/11/15 02:07:32;;;;;;;11.05;7.15;;;8.10;99.90;;;;;;5078213;28;20032;-73
2023/11/15 02:10:01;;;;;;;11.15;7.82;;;8.30;99.90;;;;;;5077477;28;20097;-73
2023/11/15 02:12:27;;;;;;;11.05;7.63;;;8.30;99.90;;;;;;5079528;28;20066;-73
2023/11/15 02:14:53;;;;;;;12.65;7.32;;;8.20;99.90;;;;;;5079277;28;20485;-73
2023/11/15 02:17:19;;;;;;;12.05;7.63;;;8.20;99.90;;;;;;5078016;28;20036;-73
2023/11/15 02:19:44;;;;;;;11.52;8.23;;;8.20;99.90;;;;;;5078721;28;20044;-73
2023/11/15 02:22:10;;;;;;;10.20;6.88;;;8.20;99.90;;;;;;5078972;28;20032;-73
2023/11/15 02:24:37;;;;;;;10.68;7.15;;;8.00;99.90;;;;;;5078636;28;20072;-73
2023/11/15 02:27:03;;;;;;;9.75;6.75;;;8.00;99.90;;;;;;5082613;28;20027;-73
2023/11/15 02:29:28;;;;;;;10.43;7.20;;;8.10;99.90;;;;;;5082688;28;20060;-73
2023/11/15 02:31:54;;;;;;;13.80;7.38;;;8.10;99.90;;;;;;5081544;28;20490;-73
2023/11/15 02:34:20;;;;;;;10.82;6.90;;;8.00;99.90;;;;;;5081244;28;20552;-73
2023/11/15 02:36:46;;;;;;;12.73;8.02;;;8.00;99.90;;;;;;5082123;28;20481;-73
2023/11/15 02:39:13;;;;;;;11.73;6.95;;;8.20;99.90;;;;;;5081932;28;20066;-73
2023/11/15 02:41:40;;;;;;;13.02;7.68;;;8.00;99.90;;;;;;5081730;28;20062;-75
2023/11/15 02:44:06;;;;;;;10.25;7.00;;;7.90;99.90;;;;;;5082331;28;20628;-75
2023/11/15 02:46:31;;;;;;;8.38;6.32;;;8.00;99.90;;;;;;5080783;28;20032;-73
2023/11/15 02:48:57;;;;;;;12.23;7.50;;;8.00;99.90;;;;;;5081579;28;20028;-75
2023/11/15 02:51:23;;;;;;;13.23;7.18;;;8.00;99.90;;;;;;5082016;28;20047;-75
2023/11/15 02:53:48;;;;;;;10.95;7.47;;;8.00;99.90;;;;;;5081681;28;20028;-75
2023/11/15 02:56:14;;;;;;;11.32;8.40;;;8.10;99.90;;;;;;5081379;28;20036;-75
2023/11/15 02:58:40;;;;;;;10.88;7.07;;;8.10;99.90;;;;;;5081626;28;20055;-75
2023/11/15 03:01:06;;;;;;;13.68;7.47;;;8.10;99.90;;;;;;5080580;28;20640;-75
2023/11/15 03:03:35;;;;;;;16.25;7.80;;;8.20;99.90;;;;;;5079612;28;20032;-75
2023/11/15 03:06:02;;;;;;;13.30;7.45;;;8.10;99.90;;;;;;5081422;28;20024;-75
2023/11/15 03:08:27;;;;;;;11.88;7.20;;;8.30;99.90;;;;;;5081102;28;20039;-75
2023/11/15 03:10:53;;;;;;;11.77;8.13;;;8.30;99.90;;;;;;5080379;28;20031;-75
2023/11/15 03:13:19;;;;;;;12.23;7.45;;;8.40;99.90;;;;;;5080266;28;21003;-75
2023/11/15 03:15:48;;;;;;;11.25;8.25;;;8.40;99.90;;;;;;5080405;28;20169;-73
2023/11/15 03:18:14;;;;;;;12.32;7.88;;;8.30;99.90;;;;;;5081472;28;20012;-73
2023/11/15 03:20:39;;;;;;;10.02;7.28;;;8.10;99.90;;;;;;5080519;28;20693;-73
2023/11/15 03:23:05;;;;;;;10.93;7.95;;;7.90;99.90;;;;;;5079981;28;20032;-73
2023/11/15 03:25:31;;;;;;;11.68;6.97;;;7.80;99.90;;;;;;5080185;28;20036;-73
2023/11/15 03:27:56;;;;;;;10.05;6.07;;;7.70;99.90;;;;;;5081646;28;20096;-73
2023/11/15 03:30:22;;;;;;;12.05;7.13;;;7.60;99.90;;;;;;5081269;28;20111;-73
2023/11/15 03:32:47;;;;;;;12.52;6.70;;;7.60;99.90;;;;;;5081082;28;20402;-73
2023/11/15 03:35:13;;;;;;;11.50;7.35;;;7.60;99.90;;;;;;5081353;28;20393;-73
2023/11/15 03:37:41;;;;;;;11.70;6.93;;;7.60;99.90;;;;;;5081151;28;20455;-73
2023/11/15 03:40:08;;;;;;;9.70;7.05;;;7.70;99.90;;;;;;5079864;28;20047;-73
2023/11/15 03:42:36;;;;;;;11.10;8.07;;;7.60;99.90;;;;;;5080886;28;20039;-73
2023/11/15 03:45:04;;;;;;;11.98;7.22;;;7.60;99.90;;;;;;5080480;28;20028;-73
2023/11/15 03:47:31;;;;;;;11.68;8.20;;;7.60;99.90;;;;;;5081395;28;20385;-73
2023/11/15 03:50:00;;;;;;;10.18;6.60;;;7.50;99.90;;;;;;5079714;28;20028;-73
2023/11/15 03:52:26;;;;;;;10.05;6.68;;;7.50;99.90;;;;;;5079371;28;20055;-73
2023/11/15 03:54:52;;;;;;;13.27;7.55;;;7.40;99.90;;;;;;5080935;28;20028;-73
2023/11/15 03:57:17;;;;;;;9.65;7.03;;;7.50;99.90;;;;;;5079861;28;20493;-73
2023/11/15 03:59:43;;;;;;;9.80;6.80;;;7.40;99.90;;;;;;5078576;28;20177;-73
2023/11/15 04:02:09;;;;;;;8.25;6.53;;;7.40;99.90;;;;;;5080045;28;20068;-74
2023/11/15 04:04:37;;;;;;;12.23;7.13;;;7.30;99.90;;;;;;5074517;28;20458;-74
2023/11/15 04:07:03;;;;;;;13.07;8.32;;;7.20;99.90;;;;;;5075878;28;20366;-74
2023/11/15 04:09:34;;;;;;;10.88;7.00;;;7.20;99.90;;;;;;5075800;28;20555;-74
2023/11/15 04:12:00;;;;;;;10.43;7.38;;;7.20;99.90;;;;;;5075842;28;20135;-74
2023/11/15 04:14:27;;;;;;;9.80;7.63;;;7.40;99.90;;;;;;5075143;28;20072;-74
2023/11/15 04:16:53;;;;;;;12.77;7.97;;;7.60;99.90;;;;;;5073412;28;20069;-75
2023/11/15 04:19:21;;;;;;;12.30;7.18;;;7.60;99.90;;;;;;5074202;28;20159;-74
2023/11/15 04:21:52;;;;;;;11.65;7.40;;;7.60;99.90;;;;;;5072574;28;20798;-74
2023/11/15 04:24:18;;;;;;;11.55;6.80;;;7.70;99.90;;;;;;5074581;28;20032;-75
2023/11/15 04:26:45;;;;;;;10.60;7.90;;;7.70;99.90;;;;;;5075907;28;20417;-75
2023/11/15 04:29:12;;;;;;;12.30;7.90;;;7.80;99.90;;;;;;5076046;28;20076;-74
2023/11/15 04:31:38;;;;;;;12.75;7.57;;;7.90;99.90;;;;;;5076694;28;20032;-74
2023/11/15 04:34:05;;;;;;;9.48;6.75;;;7.90;99.90;;;;;;5075778;28;20054;-74
2023/11/15 04:36:35;;;;;;;10.93;7.70;;;8.00;99.90;;;;;;5076389;28;20032;-74
2023/11/15 04:39:07;;;;;;;10.52;7.95;;;8.00;99.90;;;;;;5075863;28;20822;-74
2023/11/15 04:41:34;;;;;;;10.60;7.20;;;8.00;99.90;;;;;;5075338;28;20064;-74
2023/11/15 04:44:00;;;;;;;12.85;7.68;;;8.20;99.90;;;;;;5075200;28;20371;-74
2023/11/15 04:46:26;;;;;;;11.07;7.25;;;8.30;99.90;;;;;;5075178;28;20040;-74
2023/11/15 04:48:52;;;;;;;9.27;7.25;;;8.40;99.90;;;;;;5074165;28;20039;-74
2023/11/15 04:51:18;;;;;;;9.02;6.53;;;8.30;99.90;;;;;;5074756;28;20036;-74
2023/11/15 04:53:44;;;;;;;13.07;8.13;;;8.40;99.90;;;;;;5075245;28;20127;-74
2023/11/15 04:56:10;;;;;;;8.45;7.25;;;8.40;99.90;;;;;;5075354;28;20434;-74
2023/11/15 04:58:36;;;;;;;11.20;8.13;;;8.40;99.90;;;;;;5073077;28;20040;-74
2023/11/15 05:01:01;;;;;;;11.80;7.38;;;8.40;99.90;;;;;;5072760;28;20058;-74
2023/11/15 05:03:27;;;;;;;11.15;8.18;;;8.30;99.90;;;;;;5072527;28;20047;-74
2023/11/15 05:05:54;;;;;;;11.00;7.47;;;8.30;99.90;;;;;;5072053;28;20027;-74
2023/11/15 05:08:19;;;;;;;11.38;6.72;;;8.30;99.90;;;;;;5072517;28;20032;-74
2023/11/15 05:10:45;;;;;;;8.90;6.35;;;8.30;99.90;;;;;;5072628;28;20036;-74
2023/11/15 05:13:11;;;;;;;9.13;5.95;;;8.40;99.90;;;;;;5071894;28;20125;-74
2023/11/15 05:15:37;;;;;;;11.30;6.50;;;8.40;99.90;;;;;;5072150;28;20782;-74
2023/11/15 05:18:03;;;;;;;11.77;6.25;;;8.50;99.90;;;;;;5070929;28;20650;-74
2023/11/15 05:20:29;;;;;;;10.63;7.22;;;8.50;99.90;;;;;;5072706;28;20027;-74
2023/11/15 05:22:55;;;;;;;8.18;6.07;;;8.50;99.90;;;;;;5072454;28;20101;-74
2023/11/15 05:25:21;;;;;;;10.00;7.10;;;8.50;99.90;;;;;;5070930;28;20032;-74
2023/11/15 05:27:47;;;;;;;11.55;6.15;;;8.50;99.90;;;;;;5073066;28;20104;-74
2023/11/15 05:30:14;;;;;;;8.65;6.40;;;8.50;99.90;;;;;;5072698;28;20082;-74
2023/11/15 05:32:40;;;;;;;13.02;6.35;;;8.60;99.90;;;;;;5072225;28;20090;-74
2023/11/15 05:35:05;;;;;;;9.60;6.32;;;8.70;99.90;;;;;;5071489;28;20036;-74
2023/11/15 05:37:31;;;;;;;10.32;7.05;;;8.70;99.90;;;;;;5072490;28;20039;-74
2023/11/15 05:39:57;;;;;;;9.35;6.32;;;8.50;99.90;;;;;;5072008;28;20127;-74
2023/11/15 05:42:22;;;;;;;10.40;6.43;;;8.60;99.90;;;;;;5072288;28;20032;-74
2023/11/15 05:44:48;;;;;;;9.13;6.10;;;8.60;99.90;;;;;;5072384;28;20487;-74
2023/11/15 05:47:15;;;;;;;10.80;7.30;;;8.70;99.90;;;;;;5069142;28;20039;-74
2023/11/15 05:49:41;;;;;;;8.18;5.90;;;8.70;99.90;;;;;;5071667;28;20024;-74
2023/11/15 05:52:07;;;;;;;13.55;6.75;;;8.70;99.90;;;;;;5072017;28;20040;-74
2023/11/15 05:54:33;;;;;;;9.23;6.47;;;8.70;99.90;;;;;;5072026;28;20078;-74
2023/11/15 05:56:58;;;;;;;7.70;5.78;;;8.60;99.90;;;;;;5072419;28;20032;-74
2023/11/15 05:59:26;;;;;;;11.63;6.72;;;8.70;99.90;;;;;;5072480;28;20109;-74
2023/11/15 06:01:54;;;;;;;9.18;6.22;;;8.70;99.90;;;;;;5074821;28;20100;-74
2023/11/15 06:04:20;;;;;;;8.57;6.05;;;8.70;99.90;;;;;;5075000;28;20067;-74
2023/11/15 06:06:46;;;;;;;9.15;6.28;;;8.80;99.90;;;;;;5075540;28;20027;-74
2023/11/15 06:09:14;;;;;;;10.02;6.50;;;8.80;99.90;;;;;;5075419;28;20438;-74
2023/11/15 06:11:42;;;;;;;8.98;6.20;;;8.90;99.90;;;;;;5075182;28;20064;-74
2023/11/15 06:14:08;;;;;;;7.95;5.78;;;8.70;99.90;;;;;;5075325;28;20553;-74
2023/11/15 06:16:39;;;;;;;7.00;5.32;;;8.60;99.90;;;;;;5075699;28;20478;-75
2023/11/15 06:19:07;;;;;;;8.38;5.95;;;8.50;99.90;;;;;;5075830;28;20069;-74
2023/11/15 06:21:41;;;;;;;8.65;5.68;;;8.40;99.90;;;;;;5075599;28;20161;-74
2023/11/15 06:24:06;;;;;;;8.27;5.47;;;8.40;99.90;;;;;;5074899;28;20032;-74
2023/11/15 06:26:39;;;;;;;8.98;6.18;;;8.30;99.90;;;;;;5075723;28;20043;-74
2023/11/15 06:29:08;;;;;;;8.65;5.45;;;8.30;99.90;;;;;;5075059;28;20628;-74
2023/11/15 06:31:36;;;;;;;8.80;6.43;;;8.30;99.90;;;;;;5074688;28;20040;-74
2023/11/15 06:34:05;;;;;;;8.90;5.20;;;8.60;99.90;;;;;;5074334;28;20033;-74
2023/11/15 06:36:39;;;;;;;11.70;5.47;;;8.50;99.90;;;;;;5075055;28;20032;-74
2023/11/15 06:39:08;;;;;;;9.38;5.43;;;8.70;99.90;;;;;;5074916;28;20599;-75
2023/11/15 06:41:34;;;;;;;8.85;5.70;;;8.50;99.90;;;;;;5075300;28;20035;-75
2023/11/15 06:44:00;;;;;;;9.15;5.47;;;8.50;99.90;;;;;;5079429;28;20039;-74
2023/11/15 06:46:27;;;;;;;7.50;5.32;;;8.70;99.90;;;;;;5075399;28;20516;-76
2023/11/15 06:48:52;;;;;;;7.68;5.05;;;8.60;99.90;;;;;;5074690;28;20039;-75
2023/11/15 06:51:18;;;;;;;6.88;4.80;;;8.40;99.90;;;;;;5072142;28;20040;-72
2023/11/15 06:53:45;;;;;;;7.22;4.78;;;8.30;99.90;;;;;;5072653;28;20031;-75
2023/11/15 06:56:11;;;;;;;8.77;5.03;;;8.20;99.90;;;;;;5074664;28;20058;-75
2023/11/15 06:58:37;;;;;;;6.78;4.45;;;8.10;99.90;;;;;;5073658;28;20501;-74
2023/11/15 07:01:06;;;;;;;7.60;4.63;;;8.40;99.90;;;;;;5073541;28;20058;-74
2023/11/15 07:03:31;;;;;;;9.05;5.88;;;8.70;99.90;;;;;;5074648;28;20097;-73
2023/11/15 07:05:58;;;;;;;7.82;4.60;;;8.70;99.90;;;;;;5075551;28;20040;-74
2023/11/15 07:08:23;;;;;;;7.45;5.40;;;8.70;99.90;;;;;;5074608;28;20028;-73
2023/11/15 07:10:49;;;;;;;8.00;5.78;;;8.60;99.90;;;;;;5071847;28;20309;-73
2023/11/15 07:13:16;;;;;;;7.50;5.85;;;8.30;99.90;;;;;;5071378;28;20474;-73
2023/11/15 07:15:44;;;;;;;9.30;5.30;;;8.10;99.90;;;;;;5073359;28;20101;-73
2023/11/15 07:18:11;;;;;;;6.22;4.00;;;8.10;99.90;;;;;;5071352;28;21109;-73
2023/11/15 07:20:38;;;;;;;9.38;5.65;;;8.10;99.90;;;;;;5073560;28;20520;-73
2023/11/15 07:23:03;;;;;;;8.48;6.03;;;8.20;99.90;;;;;;5073196;28;20468;-72
2023/11/15 07:25:29;;;;;;;9.38;5.97;;;8.20;99.90;;;;;;5073329;28;20036;-73
2023/11/15 07:27:58;;;;;;;9.05;5.65;;;8.10;99.90;;;;;;5073094;28;20587;-73
2023/11/15 07:30:24;;;;;;;6.88;5.15;;;7.90;99.90;;;;;;5071515;28;20028;-73
2023/11/15 07:32:50;;;;;;;8.65;5.40;;;7.90;99.90;;;;;;5072511;28;20032;-73
2023/11/15 07:35:16;;;;;;;6.93;4.70;;;7.90;99.90;;;;;;5073214;28;21683;-73
2023/11/15 07:37:43;;;;;;;5.72;4.18;;;7.90;99.90;;;;;;5072776;28;20076;-73
2023/11/15 07:40:12;;;;;;;6.82;4.53;;;8.20;99.90;;;;;;5071222;28;20450;-73
2023/11/15 07:42:39;;;;;;;6.78;4.70;;;8.60;99.90;;;;;;5071920;28;20358;-73
2023/11/15 07:45:08;;;;;;;7.57;5.55;;;8.90;99.90;;;;;;5070473;28;20138;-73
2023/11/15 07:47:34;;;;;;;7.38;5.10;;;8.70;99.90;;;;;;5070770;28;20051;-74
2023/11/15 07:50:04;;;;;;;7.72;4.60;;;8.80;99.90;;;;;;5070376;28;20028;-72
2023/11/15 07:52:33;;;;;;;7.10;3.55;;;8.80;99.90;;;;;;5072175;28;20028;-73
2023/11/15 07:54:59;;;;;;;6.03;4.10;;;9.00;99.90;;;;;;5071965;28;20043;-73
2023/11/15 07:57:25;;;;;;;8.75;4.05;;;9.20;99.90;;;;;;5072042;28;20171;-73
2023/11/15 07:59:52;;;;;;;6.75;4.40;;;9.10;99.90;;;;;;5073179;28;20028;-73
2023/11/15 08:02:18;;;;;;;6.10;4.25;;;9.20;99.90;;;;;;5073006;28;20044;-72
2023/11/15 08:04:44;;;;;;;7.20;4.22;;;9.20;99.90;;;;;;5072101;28;20056;-74
2023/11/15 08:07:11;;;;;;;8.07;4.40;;;9.20;99.90;;;;;;5073458;28;20116;-73
2023/11/15 08:09:37;;;;;;;5.75;4.00;;;9.10;99.90;;;;;;5069237;28;20569;-73
2023/11/15 08:12:05;;;;;;;5.03;3.58;;;9.10;99.90;;;;;;5072018;28;20032;-74
2023/11/15 08:14:31;;;;;;;7.15;4.25;;;9.00;99.90;;;;;;5073709;28;20044;-74
2023/11/15 08:16:58;;;;;;;5.07;3.13;;;9.00;99.90;;;;;;5073921;28;20074;-74
2023/11/15 08:19:24;;;;;;;8.07;3.08;;;9.10;99.90;;;;;;5070894;28;21027;-74
2023/11/15 08:21:50;;;;;;;5.90;3.10;;;9.00;99.90;;;;;;5071664;28;20042;-74
2023/11/15 08:24:22;;;;;;;4.38;2.58;;;9.00;99.90;;;;;;5071413;28;20092;-73
2023/11/15 08:26:54;;;;;;;5.43;3.30;;;9.40;99.90;;;;;;5074103;28;20605;-74
2023/11/15 08:29:21;;;;;;;4.97;3.20;;;9.30;99.90;;;;;;5070617;28;20680;-74
2023/11/15 08:31:47;;;;;;;5.82;3.40;;;9.20;99.90;;;;;;5073503;28;20067;-74
2023/11/15 08:34:14;;;;;;;5.15;3.08;;;9.00;99.90;;;;;;5072857;28;20046;-74
2023/11/15 08:36:39;;;;;;;6.10;3.25;;;9.00;99.90;;;;;;5073328;28;20051;-74
2023/11/15 08:39:12;;;;;;;4.50;2.47;;;9.10;99.90;;;;;;5071715;28;20611;-74
2023/11/15 08:41:41;;;;;;;6.53;3.72;;;9.20;99.90;;;;;;5071918;28;20034;-74
2023/11/15 08:44:08;;;;;;;5.20;2.80;;;9.20;99.90;;;;;;5072460;28;20073;-74
2023/11/15 08:46:34;;;;;;;6.68;2.78;;;9.30;99.90;;;;;;5071187;28;20036;-74
2023/11/15 08:49:01;;;;;;;4.30;2.15;;;9.60;99.90;;;;;;5072800;28;20394;-74
2023/11/15 08:51:29;;;;;;;4.50;2.25;;;9.70;99.90;;;;;;5074951;28;20154;-74
2023/11/15 08:53:54;;;;;;;4.18;2.03;;;9.90;99.90;;;;;;5074284;28;20036;-74
2023/11/15 08:56:20;;;;;;;4.00;2.35;;;10.00;99.90;;;;;;5073612;28;20042;-74
2023/11/15 08:58:46;;;;;;;3.83;1.98;;;10.00;99.90;;;;;;5072805;28;20063;-74
2023/11/15 09:01:11;;;;;;;5.13;1.98;;;10.10;99.90;;;;;;5074496;28;20089;-74
2023/11/15 09:03:39;;;;;;;5.03;2.00;;;10.20;99.90;;;;;;5074520;28;20043;-73
2023/11/15 09:06:05;;;;;;;3.28;1.65;;;10.40;99.90;;;;;;5075815;28;20630;-73
2023/11/15 09:08:31;;;;;;;4.25;1.90;;;10.40;99.90;;;;;;5074735;28;20115;-73
2023/11/15 09:10:57;;;;;;;5.13;1.90;;;10.50;99.90;;;;;;5075675;28;20024;-74
2023/11/15 09:13:23;;;;;;;2.92;1.48;;;10.40;99.90;;;;;;5075823;28;20060;-74
2023/11/15 09:15:51;;;;;;;3.58;1.85;;;10.20;99.90;;;;;;5075454;28;20650;-74
2023/11/15 09:18:23;;;;;;;4.57;1.90;;;10.20;99.90;;;;;;5074581;28;20570;-74
2023/11/15 09:20:49;;;;;;;4.68;2.00;;;10.30;99.90;;;;;;5074812;28;20096;-74
2023/11/15 09:23:18;;;;;;;4.05;1.90;;;10.40;99.90;;;;;;5072941;28;20043;-74
2023/11/15 09:25:46;;;;;;;6.97;2.20;;;10.50;99.90;;;;;;5074686;28;21361;-74
2023/11/15 09:28:18;;;;;;;4.00;1.92;;;10.30;99.90;;;;;;5074777;28;20131;-73
2023/11/15 09:30:44;;;;;;;2.75;1.40;;;10.10;99.90;;;;;;5073775;28;20105;-73
2023/11/15 09:33:09;;;;;;;3.58;1.80;;;10.20;99.90;;;;;;5073785;28;20139;-73
2023/11/15 09:35:36;;;;;;;4.40;1.98;;;10.30;99.90;;;;;;5077009;28;20024;-73
2023/11/15 09:38:03;;;;;;;3.35;1.73;;;10.60;99.90;;;;;;5079789;28;20971;-74
2023/11/15 09:40:29;;;;;;;4.05;2.13;;;10.90;99.90;;;;;;5079045;28;20111;-73
2023/11/15 09:43:00;;;;;;;3.13;1.75;;;10.90;99.90;;;;;;5079041;28;20038;-74
2023/11/15 09:45:26;;;;;;;3.33;1.50;;;10.80;99.90;;;;;;5076740;28;21033;-74
2023/11/15 09:47:54;;;;;;;3.50;1.60;;;10.90;99.90;;;;;;5078483;28;20028;-74
2023/11/15 09:50:22;;;;;;;2.40;1.35;;;11.20;99.90;;;;;;5079060;28;20035;-74
2023/11/15 09:52:49;;;;;;;4.53;1.90;;;11.20;99.90;;;;;;5076896;28;20047;-74
2023/11/15 09:55:26;;;;;;;2.50;1.30;;;11.30;99.90;;;;;;5077645;28;20551;-74
2023/11/15 09:57:53;;;;;;;5.80;1.45;;;11.30;99.90;;;;;;5079088;28;20949;-74
2023/11/15 10:00:22;;;;;;;2.72;1.33;;;11.30;99.90;;;;;;5078752;28;20028;-74
2023/11/15 10:02:52;;;;;;;2.22;1.10;;;11.30;99.90;;;;;;5079358;28;20055;-74
2023/11/15 10:05:26;;;;;;;2.60;1.45;;;11.50;99.90;;;;;;5079192;28;20035;-74
2023/11/15 10:08:10;;;;;;;5.50;1.42;;;11.80;99.90;;;;;;5079047;28;20073;-74
2023/11/15 10:10:38;;;;;;;6.43;1.27;;;12.10;99.90;;;;;;5078599;28;20061;-74
2023/11/15 10:13:14;;;;;;;3.15;1.33;;;12.20;99.90;;;;;;5083401;28;20063;-79
2023/11/15 10:15:43;;;;;;;3.67;1.48;;;12.00;99.90;;;;;;5074029;28;20036;-78
2023/11/15 10:18:14;;;;;;;3.53;1.42;;;12.00;99.90;;;;;;5078284;28;20132;-76
2023/11/15 10:20:43;;;;;;;2.58;1.23;;;12.00;99.90;;;;;;5078511;28;20040;-77
2023/11/15 10:23:11;;;;;;;3.03;1.60;;;12.00;99.90;;;;;;5077114;28;20036;-77
2023/11/15 10:25:55;;;;;;;3.15;1.40;;;12.30;99.90;;;;;;5075803;28;20732;-77
2023/11/15 10:28:26;;;;;;;3.53;1.58;;;12.20;99.90;;;;;;5076803;28;20387;-78
2023/11/15 10:31:05;;;;;;;2.50;1.30;;;12.30;99.90;;;;;;5075670;28;20032;-76
2023/11/15 10:33:37;;;;;;;3.22;1.45;;;12.30;99.90;;;;;;5075217;28;20655;-77
2023/11/15 10:36:16;;;;;;;2.72;1.30;;;12.20;99.90;;;;;;5072242;28;21293;-78
2023/11/15 10:38:46;;;;;;;3.72;1.27;;;12.20;99.90;;;;;;5075045;28;20420;-76
2023/11/15 10:41:17;;;;;;;1.73;1.00;;;12.30;99.90;;;;;;5076802;28;20359;-76
2023/11/15 10:43:51;;;;;;;2.72;1.52;;;12.40;99.90;;;;;;5075020;28;20108;-76
2023/11/15 10:46:29;;;;;;;2.70;1.35;;;12.50;99.90;;;;;;5074017;28;20040;-77
2023/11/15 10:48:58;;;;;;;4.00;1.88;;;12.60;99.90;;;;;;5076571;28;20229;-77
2023/11/15 10:51:40;;;;;;;4.47;1.10;;;12.80;99.90;;;;;;5076649;28;20035;-77
2023/11/15 10:54:09;;;;;;;3.40;1.02;;;12.80;99.90;;;;;;5075122;28;20048;-77
2023/11/15 10:56:37;;;;;;;5.28;2.45;;;12.80;99.90;;;;;;5074385;28;20682;-76
2023/11/15 10:59:05;;;;;;;55.05;28.70;;;12.90;99.90;;;;;;5075582;28;20040;-77
2023/11/15 11:01:34;;;;;;;62.08;30.60;;;13.00;99.90;;;;;;5076861;28;20058;-77
2023/11/15 11:04:07;;;;;;;17.15;7.32;;;13.10;99.90;;;;;;5077124;28;20038;-77
2023/11/15 11:06:36;;;;;;;3.65;1.83;;;13.10;99.90;;;;;;5073874;28;20383;-77
2023/11/15 11:09:18;;;;;;;4.72;1.60;;;13.30;99.90;;;;;;5075884;28;20044;-77
2023/11/15 11:12:05;;;;;;;3.45;1.60;;;13.60;99.90;;;;;;5075931;28;20111;-78
2023/11/15 11:14:32;;;;;;;3.85;1.40;;;13.50;99.90;;;;;;5076787;28;20035;-76
2023/11/15 11:16:59;;;;;;;2.53;1.33;;;13.70;99.90;;;;;;5075702;28;20032;-76
2023/11/15 11:19:27;;;;;;;3.08;1.17;;;13.70;99.90;;;;;;5074977;28;20474;-76
2023/11/15 11:22:06;;;;;;;3.60;0.90;;;13.80;99.90;;;;;;5077495;28;20032;-76
2023/11/15 11:24:34;;;;;;;2.40;0.77;;;14.00;99.90;;;;;;5075958;28;20040;-76
2023/11/15 11:27:13;;;;;;;5.07;1.30;;;14.00;99.90;;;;;;5076125;28;20051;-77
2023/11/15 11:29:51;;;;;;;2.35;0.85;;;14.00;99.90;;;;;;5075600;28;20031;-76
2023/11/15 11:32:26;;;;;;;1.88;0.85;;;14.50;99.90;;;;;;5075724;28;20040;-77
2023/11/15 11:35:01;;;;;;;3.42;0.95;;;14.50;99.90;;;;;;5075221;28;20127;-76
2023/11/15 11:37:47;;;;;;;1.77;0.90;;;14.60;99.90;;;;;;5070826;28;20032;-76
2023/11/15 11:40:17;;;;;;;1.23;0.52;;;14.60;99.80;;;;;;5070854;28;20051;-76
2023/11/15 11:42:47;;;;;;;1.83;0.77;;;14.80;99.50;;;;;;5074554;28;20493;-76
2023/11/15 11:45:15;;;;;;;1.58;0.90;;;14.60;99.00;;;;;;5072511;28;20036;-76
2023/11/15 11:47:46;;;;;;;0.93;0.40;;;14.50;98.70;;;;;;5074139;28;20059;-76
2023/11/15 11:50:23;;;;;;;2.08;0.77;;;14.50;98.80;;;;;;5073461;28;20135;-76
2023/11/15 11:52:53;;;;;;;1.23;0.68;;;14.60;98.60;;;;;;5076896;28;20261;-76
2023/11/15 11:55:19;;;;;;;1.15;0.60;;;14.80;97.90;;;;;;5075011;28;20036;-76
2023/11/15 11:57:45;;;;;;;2.13;0.60;;;14.90;98.50;;;;;;5073215;28;20708;-77
2023/11/15 12:00:12;;;;;;;1.30;0.60;;;14.80;98.20;;;;;;5074002;28;20036;-77
2023/11/15 12:02:40;;;;;;;2.67;0.80;;;14.90;98.00;;;;;;5073179;28;20105;-76
2023/11/15 12:05:06;;;;;;;1.13;0.40;;;14.90;98.70;;;;;;5073918;28;20024;-76
2023/11/15 12:07:33;;;;;;;1.80;0.73;;;15.00;98.60;;;;;;5073820;28;20031;-76
2023/11/15 12:10:05;;;;;;;0.77;0.50;;;15.00;97.70;;;;;;5073660;28;20035;-77
2023/11/15 12:12:31;;;;;;;1.67;0.70;;;15.10;98.40;;;;;;5073438;28;20044;-77
2023/11/15 12:14:59;;;;;;;1.90;0.90;;;15.10;98.40;;;;;;5073992;28;20062;-76
2023/11/15 12:17:44;;;;;;;2.83;1.00;;;15.10;97.90;;;;;;5073912;28;20084;-77
2023/11/15 12:20:10;;;;;;;1.90;0.82;;;15.20;97.50;;;;;;5073741;28;20128;-77
2023/11/15 12:22:42;;;;;;;1.13;0.57;;;15.30;98.00;;;;;;5074302;28;20048;-76
2023/11/15 12:25:13;;;;;;;0.73;0.45;;;15.60;98.00;;;;;;5074510;28;20125;-77
2023/11/15 12:27:43;;;;;;;1.55;0.65;;;15.30;97.30;;;;;;5073459;28;20378;-77
2023/11/15 12:30:10;;;;;;;1.67;0.63;;;15.30;97.70;;;;;;5071031;28;20607;-76
2023/11/15 12:32:41;;;;;;;1.83;0.60;;;15.30;97.30;;;;;;5071981;28;20040;-77
2023/11/15 12:35:11;;;;;;;1.75;0.77;;;15.30;97.00;;;;;;5072706;28;20389;-77
2023/11/15 12:37:37;;;;;;;1.33;0.68;;;15.30;97.00;;;;;;5074550;28;20040;-76
2023/11/15 12:40:20;;;;;;;1.48;0.70;;;15.20;96.90;;;;;;5074532;28;20165;-75
2023/11/15 12:42:48;;;;;;;2.10;0.55;;;15.30;96.90;;;;;;5072031;28;20143;-75
2023/11/15 12:45:35;;;;;;;2.78;0.95;;;15.20;96.80;;;;;;5070501;28;20032;-75
2023/11/15 12:48:07;;;;;;;2.97;0.65;;;15.30;97.20;;;;;;5072307;28;20031;-75
2023/11/15 12:50:35;;;;;;;1.20;0.40;;;15.20;97.20;;;;;;5071362;28;20115;-77
2023/11/15 12:53:06;;;;;;;2.85;0.63;;;15.40;96.70;;;;;;5071478;28;20130;-78